Terminal Aerodrome Forecast
Issued by NWS Birmingham, AL

Home | Current Version | Previous Version | Text Only | Print | Product List | Glossary On
Versions: 1 2 3 4 5 6 7 8 9 10 11 12 13 14 15
000
FTUS44 KBMX 172340
TAFBHM
TAF
KBHM 172340Z 1800/1824 00000KT 4SM -DZ BR OVC008
     FM180200 00000KT 4SM -DZ BR OVC005
     FM180500 00000KT 3/4SM BR OVC002
      TEMPO 1810/1814 1/4SM FG VV001
     FM181530 20003KT 4SM BR OVC006
     FM181800 23003KT 6SM BR SCT006 OVC011=

USA.gov is the U.S. government's official web portal to all federal, state and local government web resources and services.